sensor_id;sensor_type;location;lat;lon;timestamp;temperature;humidity
6206;DHT22;3136;48.788;9.772;2022-09-09T00:00:55;11.30;1.00
6206;DHT22;3136;48.788;9.772;2022-09-09T00:03:27;11.30;1.00
6206;DHT22;3136;48.788;9.772;2022-09-09T00:06:18;11.30;1.00
6206;DHT22;3136;48.788;9.772;2022-09-09T00:11:28;11.30;17.10
6206;DHT22;3136;48.788;9.772;2022-09-09T00:13:57;11.30;99.90
6206;DHT22;3136;48.788;9.772;2022-09-09T00:16:27;12.10;99.90
6206;DHT22;3136;48.788;9.772;2022-09-09T00:19:08;11.30;99.90
6206;DHT22;3136;48.788;9.772;2022-09-09T00:22:23;11.20;99.90
6206;DHT22;3136;48.788;9.772;2022-09-09T00:24:38;11.20;94.60
6206;DHT22;3136;48.788;9.772;2022-09-09T00:30:14;11.20;99.90
6206;DHT22;3136;48.788;9.772;2022-09-09T00:32:41;11.20;99.90
6206;DHT22;3136;48.788;9.772;2022-09-09T00:35:22;11.20;99.90
6206;DHT22;3136;48.788;9.772;2022-09-09T00:37:53;11.20;99.90
6206;DHT22;3136;48.788;9.772;2022-09-09T00:40:34;11.20;99.90
6206;DHT22;3136;48.788;9.772;2022-09-09T00:43:29;11.20;99.90
6206;DHT22;3136;48.788;9.772;2022-09-09T00:46:01;11.20;99.90
6206;DHT22;3136;48.788;9.772;2022-09-09T00:54:30;11.20;99.90
6206;DHT22;3136;48.788;9.772;2022-09-09T00:57:25;11.20;99.90
6206;DHT22;3136;48.788;9.772;2022-09-09T01:00:34;11.20;99.90
6206;DHT22;3136;48.788;9.772;2022-09-09T01:03:25;11.20;99.90
6206;DHT22;3136;48.788;9.772;2022-09-09T01:06:20;11.30;99.90
6206;DHT22;3136;48.788;9.772;2022-09-09T01:12:12;11.30;99.90
6206;DHT22;3136;48.788;9.772;2022-09-09T01:14:45;11.30;99.90
6206;DHT22;3136;48.788;9.772;2022-09-09T01:17:17;11.30;99.90
6206;DHT22;3136;48.788;9.772;2022-09-09T01:27:42;11.40;99.90
6206;DHT22;3136;48.788;9.772;2022-09-09T01:30:11;11.40;99.90
6206;DHT22;3136;48.788;9.772;2022-09-09T01:32:46;11.40;99.90
6206;DHT22;3136;48.788;9.772;2022-09-09T01:35:21;11.40;99.90
6206;DHT22;3136;48.788;9.772;2022-09-09T01:37:50;11.40;99.90
6206;DHT22;3136;48.788;9.772;2022-09-09T01:40:17;11.40;99.90
6206;DHT22;3136;48.788;9.772;2022-09-09T01:42:42;11.40;99.90
6206;DHT22;3136;48.788;9.772;2022-09-09T01:45:08;11.40;99.90
6206;DHT22;3136;48.788;9.772;2022-09-09T01:47:35;11.40;99.90
6206;DHT22;3136;48.788;9.772;2022-09-09T01:50:01;11.30;99.60
6206;DHT22;3136;48.788;9.772;2022-09-09T01:52:28;11.30;99.90
6206;DHT22;3136;48.788;9.772;2022-09-09T01:54:54;11.30;99.90
6206;DHT22;3136;48.788;9.772;2022-09-09T01:57:45;11.30;99.90
6206;DHT22;3136;48.788;9.772;2022-09-09T02:00:15;11.20;99.90
6206;DHT22;3136;48.788;9.772;2022-09-09T02:03:05;11.20;99.90
6206;DHT22;3136;48.788;9.772;2022-09-09T02:05:49;11.20;99.90
6206;DHT22;3136;48.788;9.772;2022-09-09T02:08:27;11.20;99.90
6206;DHT22;3136;48.788;9.772;2022-09-09T02:11:15;11.20;99.90
6206;DHT22;3136;48.788;9.772;2022-09-09T02:13:42;11.10;99.90
6206;DHT22;3136;48.788;9.772;2022-09-09T02:16:30;11.10;99.90
6206;DHT22;3136;48.788;9.772;2022-09-09T02:21:49;11.10;99.90
6206;DHT22;3136;48.788;9.772;2022-09-09T02:24:16;12.70;99.90
6206;DHT22;3136;48.788;9.772;2022-09-09T02:26:43;11.00;99.90
6206;DHT22;3136;48.788;9.772;2022-09-09T02:29:16;11.00;99.90
6206;DHT22;3136;48.788;9.772;2022-09-09T02:31:44;11.00;99.90
6206;DHT22;3136;48.788;9.772;2022-09-09T02:34:11;11.00;99.90
6206;DHT22;3136;48.788;9.772;2022-09-09T02:36:40;11.10;99.90
6206;DHT22;3136;48.788;9.772;2022-09-09T02:39:09;11.10;99.90
6206;DHT22;3136;48.788;9.772;2022-09-09T02:41:38;11.00;99.90
6206;DHT22;3136;48.788;9.772;2022-09-09T02:44:15;11.00;99.90
6206;DHT22;3136;48.788;9.772;2022-09-09T02:49:56;11.00;99.90
6206;DHT22;3136;48.788;9.772;2022-09-09T02:52:41;11.00;99.90
6206;DHT22;3136;48.788;9.772;2022-09-09T02:55:20;11.00;99.90
6206;DHT22;3136;48.788;9.772;2022-09-09T02:57:49;10.90;99.90
6206;DHT22;3136;48.788;9.772;2022-09-09T03:00:15;10.90;99.90
6206;DHT22;3136;48.788;9.772;2022-09-09T03:02:41;10.90;99.90
6206;DHT22;3136;48.788;9.772;2022-09-09T03:05:07;11.30;99.90
6206;DHT22;3136;48.788;9.772;2022-09-09T03:07:33;10.80;99.90
6206;DHT22;3136;48.788;9.772;2022-09-09T03:09:59;10.80;99.90
6206;DHT22;3136;48.788;9.772;2022-09-09T03:12:24;10.80;99.90
6206;DHT22;3136;48.788;9.772;2022-09-09T03:14:50;10.80;99.90
6206;DHT22;3136;48.788;9.772;2022-09-09T03:17:16;10.80;99.90
6206;DHT22;3136;48.788;9.772;2022-09-09T03:19:42;10.80;99.90
6206;DHT22;3136;48.788;9.772;2022-09-09T03:22:09;10.80;99.90
6206;DHT22;3136;48.788;9.772;2022-09-09T03:24:35;10.70;99.90
6206;DHT22;3136;48.788;9.772;2022-09-09T03:27:00;10.70;99.90
6206;DHT22;3136;48.788;9.772;2022-09-09T03:29:26;10.70;99.90
6206;DHT22;3136;48.788;9.772;2022-09-09T03:31:52;10.70;99.90
6206;DHT22;3136;48.788;9.772;2022-09-09T03:34:17;10.70;99.90
6206;DHT22;3136;48.788;9.772;2022-09-09T03:36:43;10.70;99.90
6206;DHT22;3136;48.788;9.772;2022-09-09T03:39:08;10.60;99.90
6206;DHT22;3136;48.788;9.772;2022-09-09T03:41:34;10.60;99.90
6206;DHT22;3136;48.788;9.772;2022-09-09T03:43:59;10.60;99.90
6206;DHT22;3136;48.788;9.772;2022-09-09T03:46:25;10.60;99.90
6206;DHT22;3136;48.788;9.772;2022-09-09T03:48:51;10.60;99.90
6206;DHT22;3136;48.788;9.772;2022-09-09T03:51:20;10.60;99.90
6206;DHT22;3136;48.788;9.772;2022-09-09T03:53:47;10.60;1.00
6206;DHT22;3136;48.788;9.772;2022-09-09T03:56:13;10.70;1.00
6206;DHT22;3136;48.788;9.772;2022-09-09T03:58:38;10.80;1.00
6206;DHT22;3136;48.788;9.772;2022-09-09T04:01:22;10.90;1.00
6206;DHT22;3136;48.788;9.772;2022-09-09T04:03:48;11.00;1.00
6206;DHT22;3136;48.788;9.772;2022-09-09T04:06:14;10.90;99.90
6206;DHT22;3136;48.788;9.772;2022-09-09T04:08:40;10.90;99.90
6206;DHT22;3136;48.788;9.772;2022-09-09T04:11:06;10.90;99.90
6206;DHT22;3136;48.788;9.772;2022-09-09T04:13:37;11.00;99.90
6206;DHT22;3136;48.788;9.772;2022-09-09T04:16:04;11.20;99.90
6206;DHT22;3136;48.788;9.772;2022-09-09T04:18:31;11.10;99.90
6206;DHT22;3136;48.788;9.772;2022-09-09T04:20:57;11.10;99.90
6206;DHT22;3136;48.788;9.772;2022-09-09T04:23:24;11.10;99.90
6206;DHT22;3136;48.788;9.772;2022-09-09T04:25:51;11.10;99.90
6206;DHT22;3136;48.788;9.772;2022-09-09T04:28:19;11.10;99.90
6206;DHT22;3136;48.788;9.772;2022-09-09T04:30:45;11.10;99.90
6206;DHT22;3136;48.788;9.772;2022-09-09T04:33:11;11.10;99.90
6206;DHT22;3136;48.788;9.772;2022-09-09T04:35:38;11.10;99.90
6206;DHT22;3136;48.788;9.772;2022-09-09T04:38:04;11.20;99.90
6206;DHT22;3136;48.788;9.772;2022-09-09T04:40:32;11.20;99.90
6206;DHT22;3136;48.788;9.772;2022-09-09T04:43:00;11.20;99.90
6206;DHT22;3136;48.788;9.772;2022-09-09T04:45:26;11.20;99.90
6206;DHT22;3136;48.788;9.772;2022-09-09T04:47:53;11.30;99.90
6206;DHT22;3136;48.788;9.772;2022-09-09T04:50:19;11.40;99.90
6206;DHT22;3136;48.788;9.772;2022-09-09T04:52:45;11.30;99.90
6206;DHT22;3136;48.788;9.772;2022-09-09T04:55:10;11.30;37.40
6206;DHT22;3136;48.788;9.772;2022-09-09T04:57:38;11.30;10.40
6206;DHT22;3136;48.788;9.772;2022-09-09T05:00:05;11.30;2.90
6206;DHT22;3136;48.788;9.772;2022-09-09T05:02:30;11.20;53.10
6206;DHT22;3136;48.788;9.772;2022-09-09T05:04:57;11.20;62.40
6206;DHT22;3136;48.788;9.772;2022-09-09T05:07:23;11.20;79.60
6206;DHT22;3136;48.788;9.772;2022-09-09T05:09:49;11.20;99.90
6206;DHT22;3136;48.788;9.772;2022-09-09T05:12:16;11.20;99.90
6206;DHT22;3136;48.788;9.772;2022-09-09T05:14:44;11.30;99.90
6206;DHT22;3136;48.788;9.772;2022-09-09T05:17:10;11.20;99.90
6206;DHT22;3136;48.788;9.772;2022-09-09T05:19:36;11.30;99.90
6206;DHT22;3136;48.788;9.772;2022-09-09T05:22:02;11.40;99.90
6206;DHT22;3136;48.788;9.772;2022-09-09T05:24:28;11.30;99.90
6206;DHT22;3136;48.788;9.772;2022-09-09T05:26:54;11.80;99.90
6206;DHT22;3136;48.788;9.772;2022-09-09T05:29:26;11.40;99.90
6206;DHT22;3136;48.788;9.772;2022-09-09T05:31:51;11.50;99.90
6206;DHT22;3136;48.788;9.772;2022-09-09T05:34:17;11.50;99.90
6206;DHT22;3136;48.788;9.772;2022-09-09T05:36:43;11.50;99.90
6206;DHT22;3136;48.788;9.772;2022-09-09T05:39:08;11.60;99.90
6206;DHT22;3136;48.788;9.772;2022-09-09T05:41:34;11.50;99.90
6206;DHT22;3136;48.788;9.772;2022-09-09T05:44:01;11.50;99.90
6206;DHT22;3136;48.788;9.772;2022-09-09T05:46:27;11.50;99.90
6206;DHT22;3136;48.788;9.772;2022-09-09T05:48:53;11.60;99.90
6206;DHT22;3136;48.788;9.772;2022-09-09T05:51:21;11.70;99.90
6206;DHT22;3136;48.788;9.772;2022-09-09T05:53:48;11.70;99.90
6206;DHT22;3136;48.788;9.772;2022-09-09T05:56:15;11.70;99.90
6206;DHT22;3136;48.788;9.772;2022-09-09T05:58:41;11.80;99.90
6206;DHT22;3136;48.788;9.772;2022-09-09T06:01:32;11.90;99.90
6206;DHT22;3136;48.788;9.772;2022-09-09T06:03:58;11.90;97.00
6206;DHT22;3136;48.788;9.772;2022-09-09T06:06:31;11.90;1.00
6206;DHT22;3136;48.788;9.772;2022-09-09T06:08:57;12.00;8.10
6206;DHT22;3136;48.788;9.772;2022-09-09T06:11:26;12.10;11.60
6206;DHT22;3136;48.788;9.772;2022-09-09T06:13:52;12.20;1.00
6206;DHT22;3136;48.788;9.772;2022-09-09T06:16:21;12.30;1.00
6206;DHT22;3136;48.788;9.772;2022-09-09T06:18:49;12.30;99.90
6206;DHT22;3136;48.788;9.772;2022-09-09T06:23:46;12.50;1.00
6206;DHT22;3136;48.788;9.772;2022-09-09T06:28:40;12.80;1.00
6206;DHT22;3136;48.788;9.772;2022-09-09T06:31:10;12.80;1.00
6206;DHT22;3136;48.788;9.772;2022-09-09T06:33:38;12.90;1.00
6206;DHT22;3136;48.788;9.772;2022-09-09T06:36:10;13.00;1.00
6206;DHT22;3136;48.788;9.772;2022-09-09T06:38:36;13.10;1.00
6206;DHT22;3136;48.788;9.772;2022-09-09T06:41:02;13.10;1.00
6206;DHT22;3136;48.788;9.772;2022-09-09T06:43:28;13.20;1.00
6206;DHT22;3136;48.788;9.772;2022-09-09T06:45:59;13.30;1.00
6206;DHT22;3136;48.788;9.772;2022-09-09T06:48:26;13.40;15.00
6206;DHT22;3136;48.788;9.772;2022-09-09T06:51:15;13.50;10.50
6206;DHT22;3136;48.788;9.772;2022-09-09T06:53:42;13.70;1.00
6206;DHT22;3136;48.788;9.772;2022-09-09T06:56:27;13.80;1.00
6206;DHT22;3136;48.788;9.772;2022-09-09T06:58:54;14.00;1.00
6206;DHT22;3136;48.788;9.772;2022-09-09T07:01:22;14.20;1.00
6206;DHT22;3136;48.788;9.772;2022-09-09T07:03:50;14.30;99.90
6206;DHT22;3136;48.788;9.772;2022-09-09T07:06:19;14.60;1.00
6206;DHT22;3136;48.788;9.772;2022-09-09T07:08:56;14.40;99.90
6206;DHT22;3136;48.788;9.772;2022-09-09T07:11:25;14.50;99.90
6206;DHT22;3136;48.788;9.772;2022-09-09T07:13:52;14.10;8.30
6206;DHT22;3136;48.788;9.772;2022-09-09T07:16:20;14.70;1.00
6206;DHT22;3136;48.788;9.772;2022-09-09T07:18:46;14.80;1.00
6206;DHT22;3136;48.788;9.772;2022-09-09T07:21:13;14.80;99.90
6206;DHT22;3136;48.788;9.772;2022-09-09T07:23:40;14.90;99.90
6206;DHT22;3136;48.788;9.772;2022-09-09T07:26:14;15.00;99.90
6206;DHT22;3136;48.788;9.772;2022-09-09T07:28:40;15.20;99.90
6206;DHT22;3136;48.788;9.772;2022-09-09T07:31:12;15.30;99.90
6206;DHT22;3136;48.788;9.772;2022-09-09T07:33:39;15.40;1.00
6206;DHT22;3136;48.788;9.772;2022-09-09T07:36:07;15.50;1.00
6206;DHT22;3136;48.788;9.772;2022-09-09T07:38:44;15.60;1.00
6206;DHT22;3136;48.788;9.772;2022-09-09T07:41:14;15.70;1.00
6206;DHT22;3136;48.788;9.772;2022-09-09T07:43:42;15.80;1.00
6206;DHT22;3136;48.788;9.772;2022-09-09T07:46:09;15.80;1.00
6206;DHT22;3136;48.788;9.772;2022-09-09T07:48:35;15.90;1.00
6206;DHT22;3136;48.788;9.772;2022-09-09T07:51:15;16.00;1.00
6206;DHT22;3136;48.788;9.772;2022-09-09T07:53:45;16.00;99.90
6206;DHT22;3136;48.788;9.772;2022-09-09T07:56:13;16.10;99.90
6206;DHT22;3136;48.788;9.772;2022-09-09T07:58:40;16.20;99.90
6206;DHT22;3136;48.788;9.772;2022-09-09T08:01:10;16.40;99.90
6206;DHT22;3136;48.788;9.772;2022-09-09T08:03:37;16.50;99.90
6206;DHT22;3136;48.788;9.772;2022-09-09T08:06:06;16.70;99.90
6206;DHT22;3136;48.788;9.772;2022-09-09T08:08:33;16.80;99.90
6206;DHT22;3136;48.788;9.772;2022-09-09T08:11:04;16.90;99.90
6206;DHT22;3136;48.788;9.772;2022-09-09T08:13:30;16.90;99.90
6206;DHT22;3136;48.788;9.772;2022-09-09T08:16:06;17.00;99.90
6206;DHT22;3136;48.788;9.772;2022-09-09T08:18:32;17.10;99.90
6206;DHT22;3136;48.788;9.772;2022-09-09T08:20:58;17.30;99.90
6206;DHT22;3136;48.788;9.772;2022-09-09T08:23:23;17.70;99.90
6206;DHT22;3136;48.788;9.772;2022-09-09T08:25:49;17.70;99.90
6206;DHT22;3136;48.788;9.772;2022-09-09T08:28:15;17.90;99.90
6206;DHT22;3136;48.788;9.772;2022-09-09T08:30:41;18.10;99.90
6206;DHT22;3136;48.788;9.772;2022-09-09T08:33:09;18.20;99.90
6206;DHT22;3136;48.788;9.772;2022-09-09T08:35:34;18.20;99.90
6206;DHT22;3136;48.788;9.772;2022-09-09T08:38:00;18.30;99.90
6206;DHT22;3136;48.788;9.772;2022-09-09T08:40:29;18.50;99.90
6206;DHT22;3136;48.788;9.772;2022-09-09T08:42:59;18.50;99.90
6206;DHT22;3136;48.788;9.772;2022-09-09T08:46:00;18.70;99.90
6206;DHT22;3136;48.788;9.772;2022-09-09T08:48:43;18.80;99.90
6206;DHT22;3136;48.788;9.772;2022-09-09T08:51:09;18.70;99.90
6206;DHT22;3136;48.788;9.772;2022-09-09T08:53:42;18.80;99.90
6206;DHT22;3136;48.788;9.772;2022-09-09T08:56:21;18.90;99.90
6206;DHT22;3136;48.788;9.772;2022-09-09T08:58:50;19.10;99.90
6206;DHT22;3136;48.788;9.772;2022-09-09T09:06:39;19.20;99.90
6206;DHT22;3136;48.788;9.772;2022-09-09T09:11:58;19.40;99.90
6206;DHT22;3136;48.788;9.772;2022-09-09T09:14:29;19.30;99.90
6206;DHT22;3136;48.788;9.772;2022-09-09T09:17:04;19.80;99.90
6206;DHT22;3136;48.788;9.772;2022-09-09T09:19:33;19.60;99.90
6206;DHT22;3136;48.788;9.772;2022-09-09T09:29:55;20.20;99.90
6206;DHT22;3136;48.788;9.772;2022-09-09T09:32:22;20.30;99.90
6206;DHT22;3136;48.788;9.772;2022-09-09T09:34:55;20.40;99.90
6206;DHT22;3136;48.788;9.772;2022-09-09T09:37:32;20.40;99.90
6206;DHT22;3136;48.788;9.772;2022-09-09T09:40:15;20.60;99.90
6206;DHT22;3136;48.788;9.772;2022-09-09T09:42:55;20.20;99.90
6206;DHT22;3136;48.788;9.772;2022-09-09T09:45:41;20.00;99.90
6206;DHT22;3136;48.788;9.772;2022-09-09T09:48:11;20.00;99.90
6206;DHT22;3136;48.788;9.772;2022-09-09T09:50:57;19.90;99.90
6206;DHT22;3136;48.788;9.772;2022-09-09T09:53:26;19.90;99.90
6206;DHT22;3136;48.788;9.772;2022-09-09T09:55:59;19.90;99.90
6206;DHT22;3136;48.788;9.772;2022-09-09T09:58:27;20.10;99.90
6206;DHT22;3136;48.788;9.772;2022-09-09T10:00:55;20.30;99.90
6206;DHT22;3136;48.788;9.772;2022-09-09T10:03:32;20.50;99.90
6206;DHT22;3136;48.788;9.772;2022-09-09T10:06:03;20.60;99.90
6206;DHT22;3136;48.788;9.772;2022-09-09T10:08:29;20.50;99.90
6206;DHT22;3136;48.788;9.772;2022-09-09T10:13:58;20.50;99.90
6206;DHT22;3136;48.788;9.772;2022-09-09T10:19:38;20.80;99.90
6206;DHT22;3136;48.788;9.772;2022-09-09T10:22:27;21.70;99.90
6206;DHT22;3136;48.788;9.772;2022-09-09T10:30:23;24.60;99.90
6206;DHT22;3136;48.788;9.772;2022-09-09T10:38:52;25.10;99.90
6206;DHT22;3136;48.788;9.772;2022-09-09T10:41:45;26.40;99.90
6206;DHT22;3136;48.788;9.772;2022-09-09T10:44:17;27.90;99.90
6206;DHT22;3136;48.788;9.772;2022-09-09T10:57:39;27.50;95.20
6206;DHT22;3136;48.788;9.772;2022-09-09T11:00:15;26.90;94.40
6206;DHT22;3136;48.788;9.772;2022-09-09T11:02:42;26.40;94.70
6206;DHT22;3136;48.788;9.772;2022-09-09T11:05:24;26.70;93.20
6206;DHT22;3136;48.788;9.772;2022-09-09T11:08:01;27.70;91.40
6206;DHT22;3136;48.788;9.772;2022-09-09T11:10:49;28.70;90.80
6206;DHT22;3136;48.788;9.772;2022-09-09T11:18:49;30.40;82.90
6206;DHT22;3136;48.788;9.772;2022-09-09T11:21:29;31.10;81.70
6206;DHT22;3136;48.788;9.772;2022-09-09T11:24:27;31.80;78.80
6206;DHT22;3136;48.788;9.772;2022-09-09T11:27:19;32.40;77.20
6206;DHT22;3136;48.788;9.772;2022-09-09T11:38:46;27.50;78.20
6206;DHT22;3136;48.788;9.772;2022-09-09T11:41:13;26.20;81.80
6206;DHT22;3136;48.788;9.772;2022-09-09T11:43:42;26.30;84.60
6206;DHT22;3136;48.788;9.772;2022-09-09T11:46:10;26.90;81.20
6206;DHT22;3136;48.788;9.772;2022-09-09T11:49:00;28.00;77.80
6206;DHT22;3136;48.788;9.772;2022-09-09T11:51:28;29.40;74.90
6206;DHT22;3136;48.788;9.772;2022-09-09T11:54:02;30.40;70.70
6206;DHT22;3136;48.788;9.772;2022-09-09T11:56:41;31.30;69.20
6206;DHT22;3136;48.788;9.772;2022-09-09T11:59:26;31.30;69.10
6206;DHT22;3136;48.788;9.772;2022-09-09T12:02:02;31.70;63.70
6206;DHT22;3136;48.788;9.772;2022-09-09T12:04:34;31.90;63.80
6206;DHT22;3136;48.788;9.772;2022-09-09T12:07:38;31.30;65.30
6206;DHT22;3136;48.788;9.772;2022-09-09T12:11:02;29.50;64.70
6206;DHT22;3136;48.788;9.772;2022-09-09T12:13:20;27.60;67.30
6206;DHT22;3136;48.788;9.772;2022-09-09T12:15:51;26.20;70.00
6206;DHT22;3136;48.788;9.772;2022-09-09T12:18:38;25.00;73.00
6206;DHT22;3136;48.788;9.772;2022-09-09T12:21:37;23.90;80.10
6206;DHT22;3136;48.788;9.772;2022-09-09T12:24:13;23.90;76.80
6206;DHT22;3136;48.788;9.772;2022-09-09T12:26:47;23.50;82.80
6206;DHT22;3136;48.788;9.772;2022-09-09T12:31:46;22.00;90.40
6206;DHT22;3136;48.788;9.772;2022-09-09T12:39:57;19.80;99.90
6206;DHT22;3136;48.788;9.772;2022-09-09T12:42:24;20.00;99.90
6206;DHT22;3136;48.788;9.772;2022-09-09T12:45:00;20.60;99.90
6206;DHT22;3136;48.788;9.772;2022-09-09T12:47:47;22.50;99.90
6206;DHT22;3136;48.788;9.772;2022-09-09T12:50:30;24.40;99.90
6206;DHT22;3136;48.788;9.772;2022-09-09T12:52:59;25.50;94.00
6206;DHT22;3136;48.788;9.772;2022-09-09T12:55:31;24.90;94.80
6206;DHT22;3136;48.788;9.772;2022-09-09T12:57:59;24.30;95.00
6206;DHT22;3136;48.788;9.772;2022-09-09T13:00:26;23.40;96.50
6206;DHT22;3136;48.788;9.772;2022-09-09T13:02:54;24.30;96.60
6206;DHT22;3136;48.788;9.772;2022-09-09T13:05:24;25.60;92.40
6206;DHT22;3136;48.788;9.772;2022-09-09T13:07:50;26.80;88.80
6206;DHT22;3136;48.788;9.772;2022-09-09T13:10:23;27.20;81.60
6206;DHT22;3136;48.788;9.772;2022-09-09T13:12:49;27.00;81.30
6206;DHT22;3136;48.788;9.772;2022-09-09T13:15:24;26.40;81.40
6206;DHT22;3136;48.788;9.772;2022-09-09T13:17:57;26.40;79.80
6206;DHT22;3136;48.788;9.772;2022-09-09T13:20:24;27.30;80.30
6206;DHT22;3136;48.788;9.772;2022-09-09T13:22:52;28.40;75.70
6206;DHT22;3136;48.788;9.772;2022-09-09T13:25:22;29.10;70.70
6206;DHT22;3136;48.788;9.772;2022-09-09T13:28:20;28.80;69.80
6206;DHT22;3136;48.788;9.772;2022-09-09T13:31:02;29.10;70.10
6206;DHT22;3136;48.788;9.772;2022-09-09T13:33:38;29.60;66.80
6206;DHT22;3136;48.788;9.772;2022-09-09T13:36:09;30.00;65.00
6206;DHT22;3136;48.788;9.772;2022-09-09T13:41:23;29.60;62.70
6206;DHT22;3136;48.788;9.772;2022-09-09T13:43:50;29.20;65.50
6206;DHT22;3136;48.788;9.772;2022-09-09T13:46:38;29.20;64.30
6206;DHT22;3136;48.788;9.772;2022-09-09T13:51:39;27.30;64.80
6206;DHT22;3136;48.788;9.772;2022-09-09T13:54:06;27.40;64.10
6206;DHT22;3136;48.788;9.772;2022-09-09T13:56:36;26.70;69.20
6206;DHT22;3136;48.788;9.772;2022-09-09T13:59:03;25.70;70.10
6206;DHT22;3136;48.788;9.772;2022-09-09T14:01:29;25.20;71.40
6206;DHT22;3136;48.788;9.772;2022-09-09T14:03:55;24.60;74.60
6206;DHT22;3136;48.788;9.772;2022-09-09T14:06:21;24.00;95.40
6206;DHT22;3136;48.788;9.772;2022-09-09T14:08:48;23.40;79.50
6206;DHT22;3136;48.788;9.772;2022-09-09T14:11:14;23.10;84.80
6206;DHT22;3136;48.788;9.772;2022-09-09T14:13:40;23.00;85.40
6206;DHT22;3136;48.788;9.772;2022-09-09T14:16:06;22.90;85.50
6206;DHT22;3136;48.788;9.772;2022-09-09T14:18:31;22.60;83.20
6206;DHT22;3136;48.788;9.772;2022-09-09T14:20:57;22.40;87.20
6206;DHT22;3136;48.788;9.772;2022-09-09T14:23:24;22.30;88.20
6206;DHT22;3136;48.788;9.772;2022-09-09T14:25:50;21.90;90.40
6206;DHT22;3136;48.788;9.772;2022-09-09T14:28:16;21.80;91.10
6206;DHT22;3136;48.788;9.772;2022-09-09T14:30:43;21.80;91.80
6206;DHT22;3136;48.788;9.772;2022-09-09T14:33:12;21.90;92.60
6206;DHT22;3136;48.788;9.772;2022-09-09T14:35:38;22.00;92.90
6206;DHT22;3136;48.788;9.772;2022-09-09T14:38:05;22.20;96.20
6206;DHT22;3136;48.788;9.772;2022-09-09T14:40:30;22.50;90.50
6206;DHT22;3136;48.788;9.772;2022-09-09T14:42:56;22.40;90.10
6206;DHT22;3136;48.788;9.772;2022-09-09T14:45:23;22.40;90.60
6206;DHT22;3136;48.788;9.772;2022-09-09T14:47:50;22.30;90.30
6206;DHT22;3136;48.788;9.772;2022-09-09T14:50:17;22.40;86.20
6206;DHT22;3136;48.788;9.772;2022-09-09T14:52:43;22.40;84.30
6206;DHT22;3136;48.788;9.772;2022-09-09T14:55:08;22.30;85.00
6206;DHT22;3136;48.788;9.772;2022-09-09T14:57:34;22.10;83.30
6206;DHT22;3136;48.788;9.772;2022-09-09T15:00:02;22.00;81.80
6206;DHT22;3136;48.788;9.772;2022-09-09T15:02:29;22.00;82.20
6206;DHT22;3136;48.788;9.772;2022-09-09T15:04:55;21.90;85.00
6206;DHT22;3136;48.788;9.772;2022-09-09T15:07:23;21.90;84.60
6206;DHT22;3136;48.788;9.772;2022-09-09T15:09:49;22.00;84.90
6206;DHT22;3136;48.788;9.772;2022-09-09T15:12:15;22.00;84.30
6206;DHT22;3136;48.788;9.772;2022-09-09T15:14:41;22.10;83.60
6206;DHT22;3136;48.788;9.772;2022-09-09T15:17:06;22.20;82.30
6206;DHT22;3136;48.788;9.772;2022-09-09T15:19:32;22.20;82.90
6206;DHT22;3136;48.788;9.772;2022-09-09T15:21:58;22.10;80.20
6206;DHT22;3136;48.788;9.772;2022-09-09T15:24:25;22.00;80.90
6206;DHT22;3136;48.788;9.772;2022-09-09T15:26:52;21.70;80.50
6206;DHT22;3136;48.788;9.772;2022-09-09T15:29:18;21.60;81.40
6206;DHT22;3136;48.788;9.772;2022-09-09T15:31:44;21.60;82.10
6206;DHT22;3136;48.788;9.772;2022-09-09T15:34:09;21.50;82.10
6206;DHT22;3136;48.788;9.772;2022-09-09T15:36:44;21.50;82.30
6206;DHT22;3136;48.788;9.772;2022-09-09T15:39:15;21.40;82.30
6206;DHT22;3136;48.788;9.772;2022-09-09T15:41:44;21.40;81.50
6206;DHT22;3136;48.788;9.772;2022-09-09T15:44:11;21.40;82.50
6206;DHT22;3136;48.788;9.772;2022-09-09T15:46:50;21.50;81.90
6206;DHT22;3136;48.788;9.772;2022-09-09T15:49:21;21.50;84.00
6206;DHT22;3136;48.788;9.772;2022-09-09T15:51:52;21.60;82.10
6206;DHT22;3136;48.788;9.772;2022-09-09T15:54:19;21.60;84.00
6206;DHT22;3136;48.788;9.772;2022-09-09T15:56:53;21.60;80.60
6206;DHT22;3136;48.788;9.772;2022-09-09T15:59:21;21.60;80.60
6206;DHT22;3136;48.788;9.772;2022-09-09T16:01:47;21.50;82.00
6206;DHT22;3136;48.788;9.772;2022-09-09T16:04:12;21.50;82.30
6206;DHT22;3136;48.788;9.772;2022-09-09T16:06:38;21.50;83.50
6206;DHT22;3136;48.788;9.772;2022-09-09T16:09:05;21.30;83.80
6206;DHT22;3136;48.788;9.772;2022-09-09T16:11:33;21.30;79.70
6206;DHT22;3136;48.788;9.772;2022-09-09T16:14:01;21.30;81.20
6206;DHT22;3136;48.788;9.772;2022-09-09T16:16:29;21.20;80.80
6206;DHT22;3136;48.788;9.772;2022-09-09T16:18:57;21.20;82.80
6206;DHT22;3136;48.788;9.772;2022-09-09T16:21:32;20.90;80.40
6206;DHT22;3136;48.788;9.772;2022-09-09T16:23:59;20.90;81.80
6206;DHT22;3136;48.788;9.772;2022-09-09T16:26:27;20.80;82.10
6206;DHT22;3136;48.788;9.772;2022-09-09T16:28:53;20.70;82.90
6206;DHT22;3136;48.788;9.772;2022-09-09T16:31:21;20.50;82.50
6206;DHT22;3136;48.788;9.772;2022-09-09T16:33:47;20.60;85.80
6206;DHT22;3136;48.788;9.772;2022-09-09T16:36:15;20.20;85.80
6206;DHT22;3136;48.788;9.772;2022-09-09T16:38:42;20.20;86.20
6206;DHT22;3136;48.788;9.772;2022-09-09T16:41:10;20.10;87.10
6206;DHT22;3136;48.788;9.772;2022-09-09T16:43:36;20.10;90.10
6206;DHT22;3136;48.788;9.772;2022-09-09T16:46:08;19.80;91.20
6206;DHT22;3136;48.788;9.772;2022-09-09T16:48:36;19.70;94.00
6206;DHT22;3136;48.788;9.772;2022-09-09T16:51:07;19.50;95.60
6206;DHT22;3136;48.788;9.772;2022-09-09T16:53:34;19.40;97.10
6206;DHT22;3136;48.788;9.772;2022-09-09T16:56:11;19.20;98.70
6206;DHT22;3136;48.788;9.772;2022-09-09T16:58:36;19.20;99.90
6206;DHT22;3136;48.788;9.772;2022-09-09T17:01:03;19.20;98.50
6206;DHT22;3136;48.788;9.772;2022-09-09T17:03:30;19.20;96.00
6206;DHT22;3136;48.788;9.772;2022-09-09T17:05:57;19.20;99.20
6206;DHT22;3136;48.788;9.772;2022-09-09T17:08:23;19.20;97.40
6206;DHT22;3136;48.788;9.772;2022-09-09T17:10:49;19.20;99.30
6206;DHT22;3136;48.788;9.772;2022-09-09T17:13:16;19.10;99.90
6206;DHT22;3136;48.788;9.772;2022-09-09T17:15:45;19.10;99.10
6206;DHT22;3136;48.788;9.772;2022-09-09T17:18:12;19.10;99.50
6206;DHT22;3136;48.788;9.772;2022-09-09T17:20:41;19.30;97.00
6206;DHT22;3136;48.788;9.772;2022-09-09T17:23:08;19.10;99.90
6206;DHT22;3136;48.788;9.772;2022-09-09T17:25:35;19.10;95.70
6206;DHT22;3136;48.788;9.772;2022-09-09T17:28:01;19.20;94.30
6206;DHT22;3136;48.788;9.772;2022-09-09T17:30:35;19.20;93.20
6206;DHT22;3136;48.788;9.772;2022-09-09T17:33:03;19.20;93.00
6206;DHT22;3136;48.788;9.772;2022-09-09T17:35:29;19.10;92.60
6206;DHT22;3136;48.788;9.772;2022-09-09T17:37:55;19.10;93.70
6206;DHT22;3136;48.788;9.772;2022-09-09T17:40:21;19.10;93.70
6206;DHT22;3136;48.788;9.772;2022-09-09T17:42:47;18.90;93.60
6206;DHT22;3136;48.788;9.772;2022-09-09T17:45:13;18.80;94.40
6206;DHT22;3136;48.788;9.772;2022-09-09T17:47:39;18.70;94.40
6206;DHT22;3136;48.788;9.772;2022-09-09T17:50:05;18.50;95.80
6206;DHT22;3136;48.788;9.772;2022-09-09T17:52:32;18.30;96.00
6206;DHT22;3136;48.788;9.772;2022-09-09T17:54:57;18.20;97.10
6206;DHT22;3136;48.788;9.772;2022-09-09T17:57:23;18.00;98.60
6206;DHT22;3136;48.788;9.772;2022-09-09T17:59:49;17.90;97.90
6206;DHT22;3136;48.788;9.772;2022-09-09T18:02:14;17.80;98.50
6206;DHT22;3136;48.788;9.772;2022-09-09T18:04:40;17.90;99.80
6206;DHT22;3136;48.788;9.772;2022-09-09T18:07:07;17.60;99.20
6206;DHT22;3136;48.788;9.772;2022-09-09T18:09:32;17.50;99.50